Time;durP1;ratioP1;P1;durP2;ratioP2;P2;SDS_P1;SDS_P2;PMS_P1;PMS_P2;Temp;Humidity;BMP_temperature;BMP_pressure;BME280_temperature;BME280_humidity;BME280_pressure;Samples;Min_cycle;Max_cycle;Signal;HPM_P1;HPM_P2
2021/06/08 00:00:53;;;;;;;9.00;7.70;;;14.70;99.90;;;;;;5037946;28;20248;-65
2021/06/08 00:03:21;;;;;;;9.03;8.13;;;14.60;99.90;;;;;;5033317;28;20249;-65
2021/06/08 00:05:49;;;;;;;9.47;7.70;;;14.60;99.90;;;;;;5028112;28;20181;-65
2021/06/08 00:08:17;;;;;;;10.97;8.70;;;14.60;99.90;;;;;;5032869;28;20185;-65
2021/06/08 00:10:46;;;;;;;9.10;8.20;;;14.50;99.90;;;;;;5054846;28;20220;-64
2021/06/08 00:13:14;;;;;;;9.40;8.40;;;14.50;99.90;;;;;;5037378;28;20219;-65
2021/06/08 00:15:42;;;;;;;9.30;8.33;;;14.50;99.90;;;;;;5039451;28;20194;-65
2021/06/08 00:18:10;;;;;;;9.20;8.13;;;14.50;99.90;;;;;;5041351;28;20189;-65
2021/06/08 00:20:38;;;;;;;9.90;8.90;;;14.50;99.90;;;;;;5040559;28;20415;-65
2021/06/08 00:23:06;;;;;;;9.73;8.20;;;14.40;99.90;;;;;;5053202;28;20209;-65
2021/06/08 00:25:34;;;;;;;8.40;7.70;;;14.40;99.90;;;;;;5038860;28;20189;-65
2021/06/08 00:28:04;;;;;;;10.03;8.70;;;14.40;99.90;;;;;;5039871;28;20194;-65
2021/06/08 00:30:32;;;;;;;9.17;8.27;;;14.30;99.90;;;;;;5039344;28;20531;-65
2021/06/08 00:33:00;;;;;;;13.63;8.80;;;14.30;99.90;;;;;;5040155;28;20194;-65
2021/06/08 00:35:30;;;;;;;8.27;7.67;;;14.30;99.90;;;;;;5039160;28;20446;-64
2021/06/08 00:37:58;;;;;;;10.90;8.23;;;14.20;99.90;;;;;;5058516;28;20189;-65
2021/06/08 00:40:27;;;;;;;9.27;8.20;;;14.10;99.90;;;;;;5045819;28;20189;-65
2021/06/08 00:42:55;;;;;;;9.50;8.60;;;14.10;99.90;;;;;;5045389;28;20476;-64
2021/06/08 00:45:27;;;;;;;13.43;8.70;;;14.10;99.90;;;;;;5041764;28;20193;-64
2021/06/08 00:47:55;;;;;;;9.67;8.40;;;14.10;99.90;;;;;;5038008;28;20181;-65
2021/06/08 00:50:23;;;;;;;9.67;8.63;;;14.10;99.90;;;;;;5042687;28;20251;-66
2021/06/08 00:52:52;;;;;;;8.93;8.13;;;14.10;99.90;;;;;;5044674;28;20369;-65
2021/06/08 00:55:20;;;;;;;10.17;9.17;;;14.00;99.90;;;;;;5071891;28;20276;-65
2021/06/08 00:57:49;;;;;;;11.37;8.77;;;14.00;99.90;;;;;;5083879;28;20176;-65
2021/06/08 01:00:19;;;;;;;9.30;8.50;;;14.00;99.90;;;;;;5084987;28;20180;-65
2021/06/08 01:02:53;;;;;;;11.70;8.33;;;14.00;99.90;;;;;;5082559;28;20191;-65
2021/06/08 01:05:22;;;;;;;9.40;8.40;;;14.00;99.90;;;;;;5064489;28;20479;-64
2021/06/08 01:07:52;;;;;;;9.63;8.73;;;14.00;99.90;;;;;;5065599;28;20185;-65
2021/06/08 01:10:20;;;;;;;12.20;9.03;;;14.00;99.90;;;;;;5083959;28;20244;-65
2021/06/08 01:13:06;;;;;;;8.70;7.90;;;14.00;99.90;;;;;;5083121;28;20188;-65
2021/06/08 01:15:34;;;;;;;10.93;9.13;;;13.90;99.90;;;;;;5084477;28;20210;-65
2021/06/08 01:18:04;;;;;;;9.77;8.77;;;13.90;99.90;;;;;;5081213;28;20193;-65
2021/06/08 01:20:32;;;;;;;13.90;9.60;;;13.90;99.90;;;;;;5080066;28;20245;-65
2021/06/08 01:23:01;;;;;;;10.97;9.37;;;13.90;99.90;;;;;;5063237;28;20181;-65
2021/06/08 01:25:29;;;;;;;10.07;9.17;;;13.80;99.90;;;;;;5077406;28;20241;-65
2021/06/08 01:27:57;;;;;;;11.03;8.90;;;13.80;99.90;;;;;;5048541;28;20538;-65
2021/06/08 01:30:26;;;;;;;10.80;8.87;;;13.80;99.90;;;;;;5078093;28;20222;-65
2021/06/08 01:32:54;;;;;;;12.73;9.57;;;13.70;99.90;;;;;;5067444;28;20184;-65
2021/06/08 01:35:24;;;;;;;10.93;9.13;;;13.80;99.90;;;;;;5083643;28;20269;-65
2021/06/08 01:37:52;;;;;;;10.00;9.00;;;13.70;99.90;;;;;;5078198;28;20188;-65
2021/06/08 01:40:21;;;;;;;13.77;10.07;;;13.70;99.90;;;;;;5084906;28;20176;-66
2021/06/08 01:42:50;;;;;;;11.37;9.83;;;13.70;99.90;;;;;;5081728;28;20180;-65
2021/06/08 01:45:18;;;;;;;10.20;9.20;;;13.70;99.90;;;;;;5079917;28;20177;-65
2021/06/08 01:47:46;;;;;;;13.80;9.80;;;13.60;99.90;;;;;;5065137;28;20195;-65
2021/06/08 01:50:15;;;;;;;11.13;9.93;;;13.60;99.90;;;;;;5080578;28;20211;-65
2021/06/08 01:52:48;;;;;;;12.97;9.43;;;13.60;99.90;;;;;;5084574;28;20261;-65
2021/06/08 01:55:20;;;;;;;13.23;9.97;;;13.50;99.90;;;;;;5083881;28;20242;-65
2021/06/08 01:57:51;;;;;;;10.90;9.80;;;13.50;99.90;;;;;;5084837;28;20180;-65
2021/06/08 02:00:27;;;;;;;15.63;10.27;;;13.50;99.90;;;;;;5082915;28;20447;-65
2021/06/08 02:03:02;;;;;;;11.40;10.20;;;13.50;99.90;;;;;;5058809;28;20221;-65
2021/06/08 02:05:38;;;;;;;14.73;10.30;;;13.30;99.90;;;;;;5085774;28;20249;-65
2021/06/08 02:08:26;;;;;;;12.07;9.77;;;13.30;99.90;;;;;;5065098;28;20183;-65
2021/06/08 02:10:59;;;;;;;12.13;10.37;;;13.30;99.90;;;;;;5082876;28;20493;-65
2021/06/08 02:13:44;;;;;;;11.87;10.67;;;13.30;99.90;;;;;;5079802;28;20207;-65
2021/06/08 02:16:17;;;;;;;13.93;10.30;;;13.30;99.90;;;;;;5077959;28;20208;-65
2021/06/08 02:18:45;;;;;;;11.77;10.53;;;13.30;99.90;;;;;;5058320;28;20192;-65
2021/06/08 02:21:16;;;;;;;12.10;10.87;;;13.20;99.90;;;;;;5081201;28;20207;-65
2021/06/08 02:23:45;;;;;;;11.97;10.77;;;13.30;99.90;;;;;;5077135;28;20184;-66
2021/06/08 02:26:14;;;;;;;13.07;11.13;;;13.20;99.90;;;;;;5062402;28;20222;-65
2021/06/08 02:28:43;;;;;;;14.80;11.30;;;13.20;99.90;;;;;;5083704;28;20192;-65
2021/06/08 02:31:14;;;;;;;12.73;11.43;;;13.20;99.90;;;;;;5064145;28;20211;-65
2021/06/08 02:33:46;;;;;;;12.17;10.90;;;13.20;99.90;;;;;;5075110;28;20247;-65
2021/06/08 02:36:15;;;;;;;13.93;11.40;;;13.20;99.90;;;;;;5065363;28;20188;-65
2021/06/08 02:38:45;;;;;;;13.10;11.47;;;13.10;99.90;;;;;;5082571;28;20200;-65
2021/06/08 02:41:13;;;;;;;16.70;12.07;;;13.10;99.90;;;;;;5081570;28;20180;-65
2021/06/08 02:43:44;;;;;;;15.10;12.23;;;13.00;99.90;;;;;;5081984;28;20180;-65
2021/06/08 02:46:13;;;;;;;14.33;12.17;;;13.00;99.90;;;;;;5077714;28;20180;-65
2021/06/08 02:48:42;;;;;;;18.67;12.33;;;13.00;99.90;;;;;;5083358;28;20200;-65
2021/06/08 02:51:10;;;;;;;15.27;13.27;;;12.90;99.90;;;;;;5082782;28;20249;-65
2021/06/08 02:53:39;;;;;;;14.57;12.93;;;12.90;99.90;;;;;;5080876;28;20475;-65
2021/06/08 02:56:08;;;;;;;15.03;12.00;;;12.90;99.90;;;;;;5081773;28;20180;-65
2021/06/08 02:58:37;;;;;;;15.33;12.67;;;12.90;99.90;;;;;;5064516;28;20383;-65
2021/06/08 03:01:08;;;;;;;14.43;12.27;;;12.90;99.90;;;;;;5081067;28;20180;-65
2021/06/08 03:03:39;;;;;;;17.70;13.50;;;12.90;99.90;;;;;;5081725;28;20172;-65
2021/06/08 03:06:10;;;;;;;16.33;13.07;;;12.90;99.90;;;;;;5081438;28;20242;-65
2021/06/08 03:08:43;;;;;;;16.53;13.30;;;12.80;99.90;;;;;;5081720;28;20180;-65
2021/06/08 03:11:24;;;;;;;17.63;13.33;;;12.80;99.90;;;;;;5078780;28;20200;-65
2021/06/08 03:13:53;;;;;;;14.07;12.13;;;12.80;99.90;;;;;;5070407;28;20464;-65
2021/06/08 03:16:25;;;;;;;14.53;12.83;;;12.70;99.90;;;;;;5060464;28;20181;-65
2021/06/08 03:18:58;;;;;;;14.50;12.97;;;12.70;99.90;;;;;;5064526;28;20317;-65
2021/06/08 03:21:30;;;;;;;18.43;13.47;;;12.60;99.90;;;;;;5080462;28;20207;-65
2021/06/08 03:24:01;;;;;;;17.40;12.50;;;12.60;99.90;;;;;;5078801;28;20426;-65
2021/06/08 03:26:35;;;;;;;17.10;13.53;;;12.50;99.90;;;;;;5059967;28;20421;-64
2021/06/08 03:29:06;;;;;;;15.47;12.33;;;12.60;99.90;;;;;;5079375;28;20184;-65
2021/06/08 03:31:37;;;;;;;18.97;13.80;;;12.60;99.90;;;;;;5083112;28;20232;-65
2021/06/08 03:34:06;;;;;;;15.53;13.27;;;12.60;99.90;;;;;;5079875;28;20191;-64
2021/06/08 03:36:35;;;;;;;17.60;14.73;;;12.50;99.90;;;;;;5081032;28;20229;-65
2021/06/08 03:39:04;;;;;;;17.57;14.00;;;12.50;99.90;;;;;;5060603;28;20429;-64
2021/06/08 03:41:32;;;;;;;17.73;13.80;;;12.60;99.90;;;;;;5079145;28;20467;-65
2021/06/08 03:44:01;;;;;;;16.80;14.40;;;12.50;99.90;;;;;;5075991;28;20514;-65
2021/06/08 03:46:30;;;;;;;17.07;14.30;;;12.60;99.90;;;;;;5071318;28;20226;-64
2021/06/08 03:48:59;;;;;;;17.97;14.27;;;12.60;99.90;;;;;;5078609;28;20200;-64
2021/06/08 03:51:29;;;;;;;19.33;15.83;;;12.60;99.90;;;;;;5065178;28;20348;-64
2021/06/08 03:53:57;;;;;;;17.27;14.03;;;12.50;99.90;;;;;;5081115;28;20482;-64
2021/06/08 03:56:25;;;;;;;15.93;13.57;;;12.50;99.90;;;;;;5063964;28;20237;-65
2021/06/08 03:58:55;;;;;;;20.33;15.60;;;12.50;99.90;;;;;;5083207;28;20188;-64
2021/06/08 04:01:24;;;;;;;17.27;14.40;;;12.50;99.90;;;;;;5078854;28;20206;-64
2021/06/08 04:03:52;;;;;;;21.30;15.60;;;12.50;99.90;;;;;;5079059;28;20207;-65
2021/06/08 04:06:22;;;;;;;18.73;14.20;;;12.50;99.90;;;;;;5081444;28;20221;-64
2021/06/08 04:08:50;;;;;;;18.53;14.53;;;12.50;99.90;;;;;;5080297;28;20379;-65
2021/06/08 04:11:21;;;;;;;18.60;13.80;;;12.50;99.90;;;;;;5053532;28;20211;-64
2021/06/08 04:13:55;;;;;;;18.80;14.53;;;12.50;99.90;;;;;;5081849;28;20363;-64
2021/06/08 04:16:24;;;;;;;20.90;15.33;;;12.50;99.90;;;;;;5074681;28;20331;-65
2021/06/08 04:18:52;;;;;;;23.07;17.57;;;12.50;99.90;;;;;;5082461;28;20226;-65
2021/06/08 04:21:24;;;;;;;23.77;17.10;;;12.60;99.90;;;;;;5078977;28;20184;-65
2021/06/08 04:23:56;;;;;;;23.37;17.67;;;12.60;99.90;;;;;;5078341;28;20433;-65
2021/06/08 04:26:25;;;;;;;28.40;17.90;;;12.70;99.90;;;;;;5081498;28;20200;-65
2021/06/08 04:28:53;;;;;;;25.23;17.93;;;12.70;99.90;;;;;;5076480;28;20409;-65
2021/06/08 04:31:21;;;;;;;24.27;17.90;;;12.80;99.90;;;;;;5080442;28;20219;-65
2021/06/08 04:33:50;;;;;;;20.20;16.87;;;12.80;99.90;;;;;;5080491;28;20184;-65
2021/06/08 04:36:19;;;;;;;19.43;15.93;;;12.90;99.90;;;;;;5083493;28;20180;-64
2021/06/08 04:38:48;;;;;;;21.97;16.93;;;12.90;99.90;;;;;;5081246;28;20238;-65
2021/06/08 04:41:16;;;;;;;22.70;17.33;;;13.00;99.90;;;;;;5079241;28;20188;-65
2021/06/08 04:43:44;;;;;;;23.13;17.27;;;13.00;99.90;;;;;;5065593;28;20364;-65
2021/06/08 04:46:13;;;;;;;23.57;16.20;;;13.10;99.90;;;;;;5080955;28;20436;-65
2021/06/08 04:48:42;;;;;;;25.13;18.17;;;13.20;99.90;;;;;;5077949;28;20183;-65
2021/06/08 04:51:10;;;;;;;24.37;18.10;;;13.30;99.90;;;;;;5079570;28;20211;-65
2021/06/08 04:53:41;;;;;;;20.70;17.47;;;13.30;99.90;;;;;;5062796;28;20441;-65
2021/06/08 04:56:10;;;;;;;25.47;18.63;;;13.40;99.90;;;;;;5081758;28;20206;-65
2021/06/08 04:58:39;;;;;;;25.13;18.20;;;13.50;99.90;;;;;;5080764;28;20184;-64
2021/06/08 05:01:16;;;;;;;27.13;17.10;;;13.60;99.90;;;;;;5076838;28;20223;-65
2021/06/08 05:03:48;;;;;;;20.70;16.63;;;13.60;99.90;;;;;;5064084;28;20203;-65
2021/06/08 05:06:20;;;;;;;19.20;15.53;;;13.70;99.90;;;;;;5074982;28;20188;-65
2021/06/08 05:08:52;;;;;;;19.80;15.40;;;13.90;99.90;;;;;;5079610;28;20183;-65
2021/06/08 05:11:25;;;;;;;22.33;15.43;;;13.90;99.90;;;;;;5080745;28;20464;-65
2021/06/08 05:13:54;;;;;;;19.17;16.17;;;14.10;99.90;;;;;;5076864;28;20258;-64
2021/06/08 05:16:24;;;;;;;19.70;15.73;;;14.20;99.90;;;;;;5080214;28;21490;-65
2021/06/08 05:18:54;;;;;;;20.20;16.97;;;14.30;99.90;;;;;;5072676;28;20433;-65
2021/06/08 05:21:22;;;;;;;20.10;16.80;;;14.40;99.90;;;;;;5059400;28;20188;-65
2021/06/08 05:23:52;;;;;;;22.40;16.63;;;14.60;99.90;;;;;;5083440;28;20367;-65
2021/06/08 05:26:22;;;;;;;20.30;17.03;;;14.70;99.90;;;;;;5083975;28;20180;-65
2021/06/08 05:28:50;;;;;;;19.83;17.20;;;14.80;99.90;;;;;;5083129;28;20191;-65
2021/06/08 05:31:19;;;;;;;24.70;19.10;;;15.00;99.90;;;;;;5085704;28;20239;-65
2021/06/08 05:33:48;;;;;;;23.30;17.43;;;15.10;99.90;;;;;;5081040;28;20435;-65
2021/06/08 05:36:16;;;;;;;24.63;17.17;;;15.30;99.90;;;;;;5082694;28;20192;-65
2021/06/08 05:38:46;;;;;;;24.90;18.10;;;15.40;99.90;;;;;;5085625;28;20180;-64
2021/06/08 05:41:15;;;;;;;28.23;19.40;;;15.50;99.90;;;;;;5085306;28;20204;-65
2021/06/08 05:43:44;;;;;;;20.07;17.63;;;15.60;99.90;;;;;;5076534;28;20184;-65
2021/06/08 05:46:12;;;;;;;26.23;17.43;;;15.70;99.90;;;;;;5083916;28;20200;-65
2021/06/08 05:48:41;;;;;;;24.13;17.77;;;15.90;99.90;;;;;;5077225;28;20196;-65
2021/06/08 05:51:10;;;;;;;19.17;16.23;;;16.00;99.90;;;;;;5082771;28;20241;-65
2021/06/08 05:53:39;;;;;;;22.63;18.20;;;16.20;99.90;;;;;;5063058;28;20184;-65
2021/06/08 05:56:08;;;;;;;23.70;18.40;;;16.30;99.90;;;;;;5088570;28;20329;-65
2021/06/08 05:58:37;;;;;;;23.97;18.17;;;16.50;99.90;;;;;;5078399;28;20420;-64
2021/06/08 06:01:10;;;;;;;20.30;16.90;;;16.70;99.90;;;;;;5065268;28;20372;-65
2021/06/08 06:03:40;;;;;;;24.27;17.27;;;16.80;99.90;;;;;;5063289;28;20184;-65
2021/06/08 06:06:08;;;;;;;25.13;17.67;;;16.90;99.90;;;;;;5067399;28;20184;-65
2021/06/08 06:08:36;;;;;;;23.20;18.10;;;17.10;99.90;;;;;;5085095;28;20318;-65
2021/06/08 06:11:07;;;;;;;23.73;17.60;;;17.20;99.90;;;;;;5085141;28;20184;-65
2021/06/08 06:13:39;;;;;;;21.10;15.90;;;17.30;99.90;;;;;;5082299;28;20196;-65
2021/06/08 06:16:11;;;;;;;23.23;17.70;;;17.30;99.90;;;;;;5064611;28;20245;-65
2021/06/08 06:18:40;;;;;;;23.07;17.50;;;17.30;99.90;;;;;;5081262;28;20205;-65
2021/06/08 06:21:08;;;;;;;21.30;17.83;;;17.60;99.90;;;;;;5083185;28;20418;-65
2021/06/08 06:23:36;;;;;;;23.10;17.97;;;17.70;99.90;;;;;;5083504;28;20334;-65
2021/06/08 06:26:05;;;;;;;19.30;17.03;;;17.80;99.90;;;;;;5083484;28;20179;-65
2021/06/08 06:28:33;;;;;;;21.03;16.87;;;17.90;99.90;;;;;;5080603;28;20418;-65
2021/06/08 06:31:06;;;;;;;20.60;16.40;;;17.90;99.90;;;;;;5079957;28;20180;-65
2021/06/08 06:33:36;;;;;;;20.27;17.93;;;18.00;99.90;;;;;;5081663;28;20221;-65
2021/06/08 06:36:05;;;;;;;20.17;17.23;;;18.00;99.90;;;;;;5079696;28;20182;-65
2021/06/08 06:38:36;;;;;;;23.23;18.73;;;18.10;99.90;;;;;;5080291;28;20225;-64
2021/06/08 06:41:11;;;;;;;20.03;17.03;;;18.40;99.90;;;;;;5081960;28;20184;-65
2021/06/08 06:43:42;;;;;;;20.93;17.97;;;18.70;99.90;;;;;;5079555;28;20190;-65
2021/06/08 06:46:11;;;;;;;22.10;17.90;;;18.70;99.90;;;;;;5082735;28;20183;-64
2021/06/08 06:48:41;;;;;;;21.53;16.70;;;18.80;99.90;;;;;;5079861;28;20239;-65
2021/06/08 06:51:10;;;;;;;23.90;16.90;;;18.80;99.90;;;;;;5082448;28;20405;-65
2021/06/08 06:53:40;;;;;;;21.60;17.80;;;18.90;99.90;;;;;;5082848;28;20456;-65
2021/06/08 06:56:08;;;;;;;26.53;17.40;;;19.00;99.90;;;;;;5075694;28;20184;-65
2021/06/08 06:58:36;;;;;;;22.90;17.57;;;19.00;99.90;;;;;;5070669;28;20196;-65
2021/06/08 07:01:04;;;;;;;25.13;18.13;;;19.10;99.90;;;;;;5076780;28;20185;-65
2021/06/08 07:03:33;;;;;;;25.33;18.27;;;19.10;99.90;;;;;;5063725;28;21335;-65
2021/06/08 07:06:05;;;;;;;24.63;17.43;;;19.20;99.90;;;;;;5082031;28;20180;-65
2021/06/08 07:08:34;;;;;;;24.00;18.13;;;19.30;99.90;;;;;;5066558;28;20313;-66
2021/06/08 07:11:02;;;;;;;23.43;18.10;;;19.40;99.90;;;;;;5083238;28;20188;-65
2021/06/08 07:13:32;;;;;;;22.23;17.30;;;19.30;99.90;;;;;;5082414;28;20224;-65
2021/06/08 07:16:01;;;;;;;25.10;18.27;;;19.40;99.90;;;;;;5078811;28;20221;-65
2021/06/08 07:18:29;;;;;;;19.53;16.23;;;19.70;99.90;;;;;;5067617;28;20180;-65
2021/06/08 07:20:59;;;;;;;22.47;18.23;;;19.80;99.90;;;;;;5074093;28;20313;-66
2021/06/08 07:23:29;;;;;;;20.33;16.47;;;20.10;99.90;;;;;;5074679;28;20188;-65
2021/06/08 07:25:58;;;;;;;19.53;17.00;;;20.30;99.90;;;;;;5078912;28;20187;-66
2021/06/08 07:28:27;;;;;;;20.67;15.70;;;20.50;99.90;;;;;;5065592;28;20199;-65
2021/06/08 07:30:56;;;;;;;21.23;14.50;;;20.50;99.90;;;;;;5082744;28;20229;-65
2021/06/08 07:33:29;;;;;;;19.13;14.23;;;20.50;99.90;;;;;;5080659;28;20305;-65
2021/06/08 07:36:05;;;;;;;16.93;14.20;;;20.50;99.90;;;;;;5083312;28;20187;-66
2021/06/08 07:38:42;;;;;;;19.47;14.50;;;20.70;99.90;;;;;;5083173;28;20197;-67
2021/06/08 07:41:14;;;;;;;18.50;14.63;;;20.70;99.90;;;;;;5071185;28;20194;-66
2021/06/08 07:43:50;;;;;;;20.10;14.23;;;20.60;99.90;;;;;;5079922;28;20193;-66
2021/06/08 07:46:20;;;;;;;18.53;13.73;;;20.60;99.90;;;;;;5080936;28;20191;-65
2021/06/08 07:48:52;;;;;;;17.87;13.80;;;20.90;99.90;;;;;;5080176;28;20234;-66
2021/06/08 07:51:22;;;;;;;22.33;13.40;;;21.20;99.90;;;;;;5078590;28;20226;-66
2021/06/08 07:53:52;;;;;;;15.70;13.53;;;21.30;99.90;;;;;;5082047;28;20262;-65
2021/06/08 07:56:22;;;;;;;15.97;13.70;;;21.40;99.90;;;;;;5082679;28;20250;-66
2021/06/08 07:58:50;;;;;;;16.17;12.40;;;21.50;99.90;;;;;;5081381;28;20225;-66
2021/06/08 08:01:20;;;;;;;14.73;12.63;;;21.60;99.90;;;;;;5077256;28;20180;-65
2021/06/08 08:03:50;;;;;;;14.17;12.37;;;21.80;99.90;;;;;;5078482;28;20176;-66
2021/06/08 08:06:19;;;;;;;20.43;14.00;;;21.90;99.90;;;;;;5081014;28;20180;-66
2021/06/08 08:08:48;;;;;;;17.37;13.67;;;22.00;99.90;;;;;;5081149;28;20190;-66
2021/06/08 08:11:18;;;;;;;19.07;13.90;;;22.20;99.90;;;;;;5082394;28;20205;-67
2021/06/08 08:13:49;;;;;;;15.33;11.70;;;22.20;99.90;;;;;;5079067;28;20232;-66
2021/06/08 08:16:18;;;;;;;15.63;12.87;;;22.20;99.90;;;;;;5081583;28;20183;-65
2021/06/08 08:18:47;;;;;;;15.53;12.97;;;22.30;99.90;;;;;;5074775;28;20199;-65
2021/06/08 08:21:18;;;;;;;17.37;13.23;;;22.20;99.90;;;;;;5079010;28;20177;-66
2021/06/08 08:23:48;;;;;;;12.97;11.40;;;22.20;99.90;;;;;;5081577;28;20199;-66
2021/06/08 08:26:18;;;;;;;16.67;13.00;;;22.40;99.90;;;;;;5075389;28;20189;-66
2021/06/08 08:28:47;;;;;;;15.23;13.40;;;22.50;99.90;;;;;;5077137;28;20193;-66
2021/06/08 08:31:17;;;;;;;18.70;12.37;;;22.80;99.90;;;;;;5077679;28;20209;-66
2021/06/08 08:33:46;;;;;;;14.50;12.27;;;23.00;99.90;;;;;;5075084;28;20244;-66
2021/06/08 08:36:16;;;;;;;18.73;12.50;;;23.10;99.90;;;;;;5083981;28;20184;-66
2021/06/08 08:38:44;;;;;;;16.47;12.87;;;23.20;99.90;;;;;;5081985;28;20186;-66
2021/06/08 08:41:11;;;;;;;15.47;13.33;;;23.70;99.90;;;;;;5079432;28;20248;-67
2021/06/08 08:43:44;;;;;;;15.53;12.90;;;23.60;99.90;;;;;;5080487;28;20183;-66
2021/06/08 08:46:13;;;;;;;15.23;12.17;;;23.60;99.90;;;;;;5080926;28;20428;-66
2021/06/08 08:48:42;;;;;;;15.57;12.17;;;23.80;99.90;;;;;;5074926;28;20176;-65
2021/06/08 08:51:12;;;;;;;13.53;12.13;;;24.30;99.90;;;;;;5082619;28;20184;-66
2021/06/08 08:53:42;;;;;;;12.43;10.20;;;25.20;99.90;;;;;;5072935;28;20210;-66
2021/06/08 08:56:28;;;;;;;12.47;11.17;;;24.90;99.90;;;;;;5044897;28;20205;-66
2021/06/08 08:59:01;;;;;;;15.47;13.00;;;25.40;99.90;;;;;;5046835;28;20239;-65
2021/06/08 09:01:30;;;;;;;14.17;10.60;;;26.00;99.90;;;;;;5046891;28;20182;-66
2021/06/08 09:04:00;;;;;;;13.63;9.70;;;25.70;99.90;;;;;;5045089;28;20191;-66
2021/06/08 09:06:28;;;;;;;12.43;10.93;;;25.30;99.90;;;;;;5045958;28;20185;-66
2021/06/08 09:08:57;;;;;;;11.40;10.20;;;25.70;99.90;;;;;;5060518;28;20469;-66
2021/06/08 09:11:28;;;;;;;16.03;9.37;;;26.20;99.90;;;;;;5046545;28;20445;-65
2021/06/08 09:13:55;;;;;;;15.15;11.40;;;25.70;99.90;;;;;;5045605;28;20304;-66
2021/06/08 09:16:25;;;;;;;12.45;11.20;;;26.40;99.90;;;;;;5035988;28;20196;-66
2021/06/08 09:18:55;;;;;;;14.07;10.82;;;26.00;99.90;;;;;;5043749;28;20170;-66
2021/06/08 09:21:25;;;;;;;10.80;9.70;;;26.40;99.90;;;;;;5045207;28;20610;-66
2021/06/08 09:23:53;;;;;;;11.32;9.55;;;26.30;99.90;;;;;;5044621;28;20201;-66
2021/06/08 09:26:20;;;;;;;15.30;9.98;;;26.10;99.90;;;;;;5046093;28;20215;-66
2021/06/08 09:28:48;;;;;;;9.85;8.85;;;26.70;99.90;;;;;;5044610;28;20205;-66
2021/06/08 09:31:20;;;;;;;9.25;7.50;;;26.90;99.90;;;;;;5041216;28;20225;-66
2021/06/08 09:33:51;;;;;;;8.52;7.65;;;26.90;99.90;;;;;;5041731;28;20217;-65
2021/06/08 09:36:20;;;;;;;9.73;8.57;;;27.20;99.90;;;;;;5038842;28;20195;-66
2021/06/08 09:38:52;;;;;;;9.80;8.73;;;27.20;99.90;;;;;;5035475;28;20179;-66
2021/06/08 09:41:25;;;;;;;12.93;9.25;;;27.30;99.90;;;;;;5040794;28;20329;-66
2021/06/08 09:44:02;;;;;;;9.25;8.20;;;27.40;99.90;;;;;;5045504;28;20192;-66
2021/06/08 09:46:32;;;;;;;9.65;8.70;;;27.60;99.90;;;;;;5040531;28;20337;-66
2021/06/08 09:49:05;;;;;;;9.93;9.05;;;27.80;99.90;;;;;;5044840;28;20191;-66
2021/06/08 09:51:51;;;;;;;10.02;9.18;;;27.20;99.90;;;;;;5042405;28;20186;-66
2021/06/08 09:54:27;;;;;;;11.95;8.70;;;27.60;99.90;;;;;;5048776;28;20274;-66
2021/06/08 09:57:11;;;;;;;9.70;8.80;;;27.50;99.90;;;;;;5082226;28;20198;-66
2021/06/08 09:59:40;;;;;;;7.60;6.90;;;27.40;99.90;;;;;;5085274;28;20328;-66
2021/06/08 10:02:25;;;;;;;7.80;7.10;;;27.50;99.90;;;;;;5068733;28;20179;-67
2021/06/08 10:05:15;;;;;;;7.63;6.93;;;27.50;99.90;;;;;;5078200;28;20204;-66
2021/06/08 10:07:44;;;;;;;8.90;8.00;;;27.80;99.90;;;;;;5073811;28;20173;-66
2021/06/08 10:10:14;;;;;;;8.43;7.63;;;28.20;99.90;;;;;;5081829;28;20230;-66
2021/06/08 10:13:00;;;;;;;9.30;8.23;;;28.00;99.90;;;;;;5084007;28;20192;-65
2021/06/08 10:15:30;;;;;;;9.82;7.43;;;27.00;99.90;;;;;;5076675;28;20186;-65
2021/06/08 10:18:06;;;;;;;6.45;6.05;;;26.20;99.90;;;;;;5082114;28;20310;-65
2021/06/08 10:20:39;;;;;;;6.10;5.70;;;26.00;99.90;;;;;;5067029;28;20257;-66
2021/06/08 10:23:22;;;;;;;7.38;6.68;;;26.60;99.90;;;;;;5059468;28;20193;-66
2021/06/08 10:25:51;;;;;;;9.07;8.27;;;27.30;99.90;;;;;;5062583;28;20276;-66
2021/06/08 10:28:19;;;;;;;7.53;6.75;;;28.00;99.90;;;;;;5058759;28;20239;-66
2021/06/08 10:30:48;;;;;;;8.00;7.28;;;28.80;99.90;;;;;;5060241;28;20196;-66
2021/06/08 10:33:32;;;;;;;8.68;7.90;;;29.20;99.90;;;;;;5069445;28;20396;-66
2021/06/08 10:36:24;;;;;;;9.82;8.52;;;29.00;99.90;;;;;;5057251;28;20256;-66
2021/06/08 10:38:52;;;;;;;8.55;7.65;;;28.90;99.90;;;;;;5061605;28;20319;-66
2021/06/08 10:41:20;;;;;;;7.20;6.60;;;29.00;98.80;;;;;;5068413;28;20391;-66
2021/06/08 10:43:49;;;;;;;8.57;7.88;;;29.00;99.90;;;;;;5081601;28;20214;-66
2021/06/08 10:46:24;;;;;;;8.48;7.68;;;28.70;98.90;;;;;;5065720;28;20379;-66
2021/06/08 10:48:53;;;;;;;8.30;7.60;;;28.50;98.30;;;;;;5077337;28;20187;-65
2021/06/08 10:51:23;;;;;;;7.30;6.70;;;28.60;99.90;;;;;;5080360;28;20500;-65
2021/06/08 10:53:53;;;;;;;7.53;6.88;;;28.60;99.90;;;;;;5083008;28;20219;-66
2021/06/08 10:56:24;;;;;;;7.15;6.55;;;29.00;99.90;;;;;;5077629;28;20177;-66
2021/06/08 10:58:54;;;;;;;8.50;7.65;;;28.70;99.90;;;;;;5084243;28;20508;-66
2021/06/08 11:01:49;;;;;;;7.10;6.57;;;29.10;98.30;;;;;;5075374;28;20329;-65
2021/06/08 11:04:24;;;;;;;9.73;8.10;;;28.80;99.40;;;;;;5016011;28;20257;-66
2021/06/08 11:06:56;;;;;;;8.40;7.57;;;28.80;98.10;;;;;;5081988;28;20224;-66
2021/06/08 11:09:36;;;;;;;7.72;7.07;;;28.60;99.90;;;;;;5083690;28;20195;-65
2021/06/08 11:12:28;;;;;;;8.15;7.45;;;28.80;99.60;;;;;;5071049;28;20188;-65
2021/06/08 11:15:02;;;;;;;12.10;7.82;;;29.30;98.90;;;;;;5083632;28;20215;-65
2021/06/08 11:17:34;;;;;;;8.48;7.78;;;29.40;99.00;;;;;;5075347;28;20196;-66
2021/06/08 11:20:05;;;;;;;8.52;7.65;;;29.50;98.60;;;;;;5082850;28;20439;-65
2021/06/08 11:23:00;;;;;;;10.43;9.30;;;29.00;97.90;;;;;;5082440;28;20187;-65
2021/06/08 11:25:37;;;;;;;10.13;8.95;;;27.90;99.40;;;;;;5056147;28;20178;-65
2021/06/08 11:28:07;;;;;;;7.75;7.20;;;27.10;98.60;;;;;;5081968;28;20180;-65
2021/06/08 11:30:37;;;;;;;9.35;8.32;;;26.60;99.90;;;;;;5082587;28;20193;-65
2021/06/08 11:33:09;;;;;;;7.63;7.03;;;26.90;99.90;;;;;;5063969;28;20341;-65
2021/06/08 11:35:41;;;;;;;7.78;6.97;;;27.40;99.90;;;;;;5079188;28;20186;-65
2021/06/08 11:38:12;;;;;;;18.38;9.02;;;27.80;98.60;;;;;;5076792;28;20187;-65
2021/06/08 11:40:49;;;;;;;9.50;6.68;;;27.80;99.90;;;;;;5080195;28;20476;-65
2021/06/08 11:43:43;;;;;;;14.60;8.18;;;27.90;99.90;;;;;;5049085;28;20376;-65
2021/06/08 11:46:13;;;;;;;8.23;7.45;;;27.90;99.40;;;;;;5074683;28;20609;-65
2021/06/08 11:48:44;;;;;;;8.65;7.85;;;28.00;99.90;;;;;;5082195;28;20183;-64
2021/06/08 11:51:33;;;;;;;8.05;7.30;;;28.00;99.90;;;;;;5073961;28;20457;-65
2021/06/08 11:54:05;;;;;;;8.88;6.60;;;27.80;99.90;;;;;;5082120;28;20208;-65
2021/06/08 11:56:49;;;;;;;8.27;7.47;;;27.70;99.90;;;;;;5082498;28;20225;-65
2021/06/08 11:59:19;;;;;;;7.82;7.22;;;27.90;99.40;;;;;;5080863;28;20188;-65
2021/06/08 12:01:49;;;;;;;8.17;7.37;;;28.00;99.90;;;;;;5080844;28;20180;-64
2021/06/08 12:04:17;;;;;;;7.17;6.47;;;28.10;98.60;;;;;;5081553;28;20233;-65
2021/06/08 12:07:02;;;;;;;7.33;6.73;;;28.10;99.90;;;;;;5082237;28;20484;-65
2021/06/08 12:09:34;;;;;;;9.70;7.70;;;28.20;99.90;;;;;;5059190;28;20191;-65
2021/06/08 12:12:10;;;;;;;7.27;6.67;;;28.20;99.50;;;;;;5071367;28;20189;-64
2021/06/08 12:14:47;;;;;;;7.37;6.67;;;28.20;99.90;;;;;;5075268;28;20238;-64
2021/06/08 12:17:15;;;;;;;8.53;7.63;;;28.00;99.90;;;;;;5082297;28;20179;-65
2021/06/08 12:19:58;;;;;;;7.37;6.67;;;27.50;99.90;;;;;;5077808;28;20206;-64
2021/06/08 12:22:28;;;;;;;7.33;5.47;;;27.40;99.90;;;;;;5082040;28;20484;-65
2021/06/08 12:25:00;;;;;;;7.27;6.30;;;27.40;99.90;;;;;;5077073;28;20451;-64
2021/06/08 12:27:37;;;;;;;7.03;5.63;;;27.50;99.90;;;;;;5075812;28;20391;-64
2021/06/08 12:30:07;;;;;;;5.70;5.17;;;27.70;99.60;;;;;;5080053;28;20183;-65
2021/06/08 12:32:37;;;;;;;7.93;7.23;;;27.90;99.90;;;;;;5081661;28;20208;-65
2021/06/08 12:35:19;;;;;;;6.73;6.23;;;27.90;99.90;;;;;;5057363;28;20213;-65
2021/06/08 12:37:47;;;;;;;7.50;6.03;;;27.90;98.00;;;;;;5080306;28;20188;-65
2021/06/08 12:40:18;;;;;;;6.43;5.37;;;27.90;98.00;;;;;;5080841;28;20202;-65
2021/06/08 12:42:47;;;;;;;7.87;5.63;;;27.80;99.20;;;;;;5069855;28;20184;-64
2021/06/08 12:45:25;;;;;;;6.20;5.53;;;27.40;97.50;;;;;;5079926;28;20325;-65
2021/06/08 12:47:52;;;;;;;6.70;6.00;;;26.80;97.90;;;;;;5036797;28;20365;-65
2021/06/08 12:50:29;;;;;;;5.97;5.40;;;26.70;97.80;;;;;;5074515;28;20180;-64
2021/06/08 12:53:01;;;;;;;5.10;4.70;;;26.80;99.00;;;;;;5081136;28;20199;-65